sensor_id;sensor_type;location;lat;lon;timestamp;P1;durP1;ratioP1;P2;durP2;ratioP2
76119;SDS011;64852;48.092;-1.640;2023-08-07T00:05:15;0.85;;;0.85;;
76119;SDS011;64852;48.092;-1.640;2023-08-07T00:07:44;0.80;;;0.80;;
76119;SDS011;64852;48.092;-1.640;2023-08-07T00:10:10;0.70;;;0.70;;
76119;SDS011;64852;48.092;-1.640;2023-08-07T00:12:35;0.90;;;0.90;;
76119;SDS011;64852;48.092;-1.640;2023-08-07T00:15:04;0.90;;;0.90;;
76119;SDS011;64852;48.092;-1.640;2023-08-07T00:17:30;1.95;;;1.13;;
76119;SDS011;64852;48.092;-1.640;2023-08-07T00:19:56;0.90;;;0.90;;
76119;SDS011;64852;48.092;-1.640;2023-08-07T00:22:22;1.17;;;1.17;;
76119;SDS011;64852;48.092;-1.640;2023-08-07T00:24:48;0.90;;;0.90;;
76119;SDS011;64852;48.092;-1.640;2023-08-07T00:27:13;0.97;;;0.97;;
76119;SDS011;64852;48.092;-1.640;2023-08-07T00:29:39;0.90;;;0.90;;
76119;SDS011;64852;48.092;-1.640;2023-08-07T00:32:05;1.00;;;1.00;;
76119;SDS011;64852;48.092;-1.640;2023-08-07T00:34:31;0.90;;;0.90;;
76119;SDS011;64852;48.092;-1.640;2023-08-07T00:36:57;1.00;;;1.00;;
76119;SDS011;64852;48.092;-1.640;2023-08-07T00:39:23;0.90;;;0.90;;
76119;SDS011;64852;48.092;-1.640;2023-08-07T00:41:49;1.10;;;1.10;;
76119;SDS011;64852;48.092;-1.640;2023-08-07T00:44:14;0.93;;;0.93;;
76119;SDS011;64852;48.092;-1.640;2023-08-07T00:46:40;1.53;;;1.43;;
76119;SDS011;64852;48.092;-1.640;2023-08-07T00:49:07;1.10;;;1.10;;
76119;SDS011;64852;48.092;-1.640;2023-08-07T00:51:36;0.90;;;0.90;;
76119;SDS011;64852;48.092;-1.640;2023-08-07T00:54:03;1.23;;;1.08;;
76119;SDS011;64852;48.092;-1.640;2023-08-07T00:56:30;1.00;;;1.00;;
76119;SDS011;64852;48.092;-1.640;2023-08-07T00:58:57;0.90;;;0.90;;
76119;SDS011;64852;48.092;-1.640;2023-08-07T01:01:23;1.00;;;1.00;;
76119;SDS011;64852;48.092;-1.640;2023-08-07T01:03:49;1.30;;;1.30;;
76119;SDS011;64852;48.092;-1.640;2023-08-07T01:06:15;0.93;;;0.93;;
76119;SDS011;64852;48.092;-1.640;2023-08-07T01:08:41;1.00;;;1.00;;
76119;SDS011;64852;48.092;-1.640;2023-08-07T01:13:42;1.10;;;1.10;;
76119;SDS011;64852;48.092;-1.640;2023-08-07T01:19:26;0.90;;;0.90;;
76119;SDS011;64852;48.092;-1.640;2023-08-07T01:22:06;0.93;;;0.93;;
76119;SDS011;64852;48.092;-1.640;2023-08-07T01:24:35;1.10;;;1.10;;
76119;SDS011;64852;48.092;-1.640;2023-08-07T01:34:58;1.77;;;1.27;;
76119;SDS011;64852;48.092;-1.640;2023-08-07T01:37:27;5.80;;;1.83;;
76119;SDS011;64852;48.092;-1.640;2023-08-07T01:39:55;2.53;;;2.10;;
76119;SDS011;64852;48.092;-1.640;2023-08-07T01:42:25;1.58;;;1.50;;
76119;SDS011;64852;48.092;-1.640;2023-08-07T01:47:17;1.10;;;1.10;;
76119;SDS011;64852;48.092;-1.640;2023-08-07T01:49:43;17.77;;;1.40;;
76119;SDS011;64852;48.092;-1.640;2023-08-07T01:52:09;2.17;;;1.97;;
76119;SDS011;64852;48.092;-1.640;2023-08-07T01:54:36;1.10;;;1.10;;
76119;SDS011;64852;48.092;-1.640;2023-08-07T01:57:02;1.20;;;1.20;;
76119;SDS011;64852;48.092;-1.640;2023-08-07T01:59:27;1.10;;;1.10;;
76119;SDS011;64852;48.092;-1.640;2023-08-07T02:01:53;2.10;;;1.40;;
76119;SDS011;64852;48.092;-1.640;2023-08-07T02:04:18;1.40;;;1.40;;
76119;SDS011;64852;48.092;-1.640;2023-08-07T02:06:44;1.20;;;1.20;;
76119;SDS011;64852;48.092;-1.640;2023-08-07T02:09:10;2.00;;;1.87;;
76119;SDS011;64852;48.092;-1.640;2023-08-07T02:11:35;1.40;;;1.40;;
76119;SDS011;64852;48.092;-1.640;2023-08-07T02:14:01;1.30;;;1.30;;
76119;SDS011;64852;48.092;-1.640;2023-08-07T02:16:26;1.20;;;1.20;;
76119;SDS011;64852;48.092;-1.640;2023-08-07T02:26:08;1.25;;;1.25;;
76119;SDS011;64852;48.092;-1.640;2023-08-07T02:31:00;1.40;;;1.40;;
76119;SDS011;64852;48.092;-1.640;2023-08-07T02:33:25;1.65;;;1.60;;
76119;SDS011;64852;48.092;-1.640;2023-08-07T02:38:16;1.30;;;1.30;;
76119;SDS011;64852;48.092;-1.640;2023-08-07T02:40:42;2.03;;;1.93;;
76119;SDS011;64852;48.092;-1.640;2023-08-07T02:43:08;1.90;;;1.80;;
76119;SDS011;64852;48.092;-1.640;2023-08-07T02:45:34;1.57;;;1.57;;
76119;SDS011;64852;48.092;-1.640;2023-08-07T02:48:00;1.50;;;1.50;;
76119;SDS011;64852;48.092;-1.640;2023-08-07T02:50:25;1.70;;;1.60;;
76119;SDS011;64852;48.092;-1.640;2023-08-07T02:52:52;1.80;;;1.70;;
76119;SDS011;64852;48.092;-1.640;2023-08-07T02:55:18;2.30;;;2.10;;
76119;SDS011;64852;48.092;-1.640;2023-08-07T02:57:43;1.90;;;1.80;;
76119;SDS011;64852;48.092;-1.640;2023-08-07T03:00:09;1.90;;;1.80;;
76119;SDS011;64852;48.092;-1.640;2023-08-07T03:02:36;1.85;;;1.75;;
76119;SDS011;64852;48.092;-1.640;2023-08-07T03:05:02;1.90;;;1.80;;
76119;SDS011;64852;48.092;-1.640;2023-08-07T03:07:27;2.22;;;2.13;;
76119;SDS011;64852;48.092;-1.640;2023-08-07T03:09:53;2.77;;;2.57;;
76119;SDS011;64852;48.092;-1.640;2023-08-07T03:12:19;2.00;;;1.90;;
76119;SDS011;64852;48.092;-1.640;2023-08-07T03:14:44;2.47;;;2.37;;
76119;SDS011;64852;48.092;-1.640;2023-08-07T03:17:10;2.10;;;2.00;;
76119;SDS011;64852;48.092;-1.640;2023-08-07T03:19:35;2.13;;;2.03;;
76119;SDS011;64852;48.092;-1.640;2023-08-07T03:22:01;3.03;;;2.83;;
76119;SDS011;64852;48.092;-1.640;2023-08-07T03:24:27;2.08;;;1.98;;
76119;SDS011;64852;48.092;-1.640;2023-08-07T03:26:52;2.47;;;2.37;;
76119;SDS011;64852;48.092;-1.640;2023-08-07T03:29:18;3.00;;;2.80;;
76119;SDS011;64852;48.092;-1.640;2023-08-07T03:31:43;2.80;;;2.60;;
76119;SDS011;64852;48.092;-1.640;2023-08-07T03:34:09;2.57;;;2.47;;
76119;SDS011;64852;48.092;-1.640;2023-08-07T03:36:35;2.77;;;2.57;;
76119;SDS011;64852;48.092;-1.640;2023-08-07T03:39:00;2.30;;;2.20;;
76119;SDS011;64852;48.092;-1.640;2023-08-07T03:41:26;2.50;;;2.40;;
76119;SDS011;64852;48.092;-1.640;2023-08-07T03:43:53;2.67;;;2.58;;
76119;SDS011;64852;48.092;-1.640;2023-08-07T03:46:18;2.57;;;2.47;;
76119;SDS011;64852;48.092;-1.640;2023-08-07T03:48:44;2.40;;;2.30;;
76119;SDS011;64852;48.092;-1.640;2023-08-07T03:56:02;2.45;;;2.35;;
76119;SDS011;64852;48.092;-1.640;2023-08-07T03:58:27;3.20;;;3.00;;
76119;SDS011;64852;48.092;-1.640;2023-08-07T04:00:53;2.97;;;2.78;;
76119;SDS011;64852;48.092;-1.640;2023-08-07T04:03:19;2.93;;;2.80;;
76119;SDS011;64852;48.092;-1.640;2023-08-07T04:05:46;2.60;;;2.50;;
76119;SDS011;64852;48.092;-1.640;2023-08-07T04:10:37;2.80;;;2.65;;
76119;SDS011;64852;48.092;-1.640;2023-08-07T04:13:02;3.10;;;2.90;;
76119;SDS011;64852;48.092;-1.640;2023-08-07T04:15:28;3.03;;;2.83;;
76119;SDS011;64852;48.092;-1.640;2023-08-07T04:17:53;4.20;;;3.30;;
76119;SDS011;64852;48.092;-1.640;2023-08-07T04:20:19;3.40;;;3.20;;
76119;SDS011;64852;48.092;-1.640;2023-08-07T04:22:45;3.00;;;2.80;;
76119;SDS011;64852;48.092;-1.640;2023-08-07T04:25:11;4.80;;;2.60;;
76119;SDS011;64852;48.092;-1.640;2023-08-07T04:27:37;3.97;;;2.67;;
76119;SDS011;64852;48.092;-1.640;2023-08-07T04:32:30;2.05;;;1.90;;
76119;SDS011;64852;48.092;-1.640;2023-08-07T04:37:21;2.55;;;2.35;;
76119;SDS011;64852;48.092;-1.640;2023-08-07T04:39:47;2.88;;;2.67;;
76119;SDS011;64852;48.092;-1.640;2023-08-07T04:42:13;2.60;;;2.50;;
76119;SDS011;64852;48.092;-1.640;2023-08-07T04:44:38;2.50;;;2.40;;
76119;SDS011;64852;48.092;-1.640;2023-08-07T04:47:04;2.50;;;2.40;;
76119;SDS011;64852;48.092;-1.640;2023-08-07T04:49:30;2.80;;;2.70;;
76119;SDS011;64852;48.092;-1.640;2023-08-07T04:51:56;2.70;;;2.60;;
76119;SDS011;64852;48.092;-1.640;2023-08-07T04:54:21;3.00;;;2.90;;
76119;SDS011;64852;48.092;-1.640;2023-08-07T04:56:47;3.83;;;3.53;;
76119;SDS011;64852;48.092;-1.640;2023-08-07T04:59:12;3.40;;;3.20;;
76119;SDS011;64852;48.092;-1.640;2023-08-07T05:01:38;3.63;;;3.40;;
76119;SDS011;64852;48.092;-1.640;2023-08-07T05:04:04;2.67;;;2.57;;
76119;SDS011;64852;48.092;-1.640;2023-08-07T05:06:30;2.90;;;2.80;;
76119;SDS011;64852;48.092;-1.640;2023-08-07T05:08:56;2.85;;;2.75;;
76119;SDS011;64852;48.092;-1.640;2023-08-07T05:11:22;2.90;;;2.80;;
76119;SDS011;64852;48.092;-1.640;2023-08-07T05:13:47;2.70;;;2.60;;
76119;SDS011;64852;48.092;-1.640;2023-08-07T05:16:13;2.63;;;2.53;;
76119;SDS011;64852;48.092;-1.640;2023-08-07T05:18:38;2.80;;;2.70;;
76119;SDS011;64852;48.092;-1.640;2023-08-07T05:21:04;3.30;;;3.10;;
76119;SDS011;64852;48.092;-1.640;2023-08-07T05:23:32;3.08;;;2.90;;
76119;SDS011;64852;48.092;-1.640;2023-08-07T05:25:57;3.47;;;3.27;;
76119;SDS011;64852;48.092;-1.640;2023-08-07T05:28:23;3.40;;;3.20;;
76119;SDS011;64852;48.092;-1.640;2023-08-07T05:30:48;3.40;;;3.20;;
76119;SDS011;64852;48.092;-1.640;2023-08-07T05:33:14;3.50;;;3.30;;
76119;SDS011;64852;48.092;-1.640;2023-08-07T05:35:40;3.70;;;3.50;;
76119;SDS011;64852;48.092;-1.640;2023-08-07T05:38:06;3.27;;;3.10;;
76119;SDS011;64852;48.092;-1.640;2023-08-07T05:40:31;3.90;;;3.70;;
76119;SDS011;64852;48.092;-1.640;2023-08-07T05:45:24;3.97;;;3.78;;
76119;SDS011;64852;48.092;-1.640;2023-08-07T05:52:41;4.38;;;4.18;;
76119;SDS011;64852;48.092;-1.640;2023-08-07T05:55:06;5.07;;;4.77;;
76119;SDS011;64852;48.092;-1.640;2023-08-07T05:57:33;5.80;;;5.50;;
76119;SDS011;64852;48.092;-1.640;2023-08-07T05:59:58;15.85;;;6.47;;
76119;SDS011;64852;48.092;-1.640;2023-08-07T06:02:24;8.02;;;7.40;;
76119;SDS011;64852;48.092;-1.640;2023-08-07T06:04:50;7.77;;;7.37;;
76119;SDS011;64852;48.092;-1.640;2023-08-07T06:21:52;5.55;;;5.25;;
76119;SDS011;64852;48.092;-1.640;2023-08-07T06:36:25;5.97;;;5.68;;
76119;SDS011;64852;48.092;-1.640;2023-08-07T06:38:51;8.32;;;7.82;;
76119;SDS011;64852;48.092;-1.640;2023-08-07T06:43:42;7.05;;;6.65;;
76119;SDS011;64852;48.092;-1.640;2023-08-07T06:46:08;10.25;;;9.75;;
76119;SDS011;64852;48.092;-1.640;2023-08-07T06:53:25;10.02;;;9.43;;
76119;SDS011;64852;48.092;-1.640;2023-08-07T09:14:33;8.60;;;8.18;;
76119;SDS011;64852;48.092;-1.640;2023-08-07T09:17:02;8.00;;;7.47;;
76119;SDS011;64852;48.092;-1.640;2023-08-07T09:39:02;6.20;;;5.90;;
76119;SDS011;64852;48.092;-1.640;2023-08-07T09:41:29;5.70;;;5.40;;
76119;SDS011;64852;48.092;-1.640;2023-08-07T09:43:55;5.80;;;5.50;;
76119;SDS011;64852;48.092;-1.640;2023-08-07T09:46:22;6.22;;;5.93;;
76119;SDS011;64852;48.092;-1.640;2023-08-07T09:48:50;5.93;;;5.63;;
76119;SDS011;64852;48.092;-1.640;2023-08-07T09:51:15;6.10;;;5.80;;
76119;SDS011;64852;48.092;-1.640;2023-08-07T09:53:41;4.80;;;4.50;;
76119;SDS011;64852;48.092;-1.640;2023-08-07T09:56:07;5.40;;;5.10;;
76119;SDS011;64852;48.092;-1.640;2023-08-07T09:58:33;4.40;;;4.20;;
76119;SDS011;64852;48.092;-1.640;2023-08-07T10:01:04;4.07;;;3.78;;
76119;SDS011;64852;48.092;-1.640;2023-08-07T10:03:31;4.10;;;3.90;;
76119;SDS011;64852;48.092;-1.640;2023-08-07T10:05:56;4.30;;;4.10;;
76119;SDS011;64852;48.092;-1.640;2023-08-07T10:08:22;3.65;;;3.45;;
76119;SDS011;64852;48.092;-1.640;2023-08-07T10:10:49;4.38;;;4.18;;
76119;SDS011;64852;48.092;-1.640;2023-08-07T10:13:15;5.10;;;4.80;;
76119;SDS011;64852;48.092;-1.640;2023-08-07T10:15:40;4.00;;;3.80;;
76119;SDS011;64852;48.092;-1.640;2023-08-07T10:18:09;3.97;;;3.78;;
76119;SDS011;64852;48.092;-1.640;2023-08-07T10:20:35;3.70;;;3.50;;
76119;SDS011;64852;48.092;-1.640;2023-08-07T10:23:04;4.22;;;3.92;;
76119;SDS011;64852;48.092;-1.640;2023-08-07T10:25:33;3.55;;;3.35;;
76119;SDS011;64852;48.092;-1.640;2023-08-07T10:28:03;2.90;;;2.80;;
76119;SDS011;64852;48.092;-1.640;2023-08-07T10:30:33;2.67;;;2.58;;
76119;SDS011;64852;48.092;-1.640;2023-08-07T10:35:30;2.80;;;2.70;;
76119;SDS011;64852;48.092;-1.640;2023-08-07T10:38:04;2.80;;;2.70;;
76119;SDS011;64852;48.092;-1.640;2023-08-07T10:40:32;2.50;;;2.40;;
76119;SDS011;64852;48.092;-1.640;2023-08-07T10:42:58;2.17;;;2.07;;
76119;SDS011;64852;48.092;-1.640;2023-08-07T10:45:36;2.25;;;2.15;;
76119;SDS011;64852;48.092;-1.640;2023-08-07T10:50:33;2.83;;;2.72;;
76119;SDS011;64852;48.092;-1.640;2023-08-07T10:53:01;2.70;;;2.60;;
76119;SDS011;64852;48.092;-1.640;2023-08-07T10:55:31;2.63;;;2.53;;
76119;SDS011;64852;48.092;-1.640;2023-08-07T10:58:20;2.70;;;2.60;;
76119;SDS011;64852;48.092;-1.640;2023-08-07T11:03:55;2.00;;;1.90;;
76119;SDS011;64852;48.092;-1.640;2023-08-07T11:06:28;2.00;;;1.90;;
76119;SDS011;64852;48.092;-1.640;2023-08-07T11:09:00;2.00;;;1.90;;
76119;SDS011;64852;48.092;-1.640;2023-08-07T11:11:28;2.00;;;1.90;;
76119;SDS011;64852;48.092;-1.640;2023-08-07T11:13:55;2.10;;;2.00;;
76119;SDS011;64852;48.092;-1.640;2023-08-07T11:16:20;1.70;;;1.60;;
76119;SDS011;64852;48.092;-1.640;2023-08-07T11:18:47;1.60;;;1.60;;
76119;SDS011;64852;48.092;-1.640;2023-08-07T11:21:13;2.45;;;2.03;;
76119;SDS011;64852;48.092;-1.640;2023-08-07T11:23:39;2.00;;;1.77;;
76119;SDS011;64852;48.092;-1.640;2023-08-07T11:26:06;1.50;;;1.50;;
76119;SDS011;64852;48.092;-1.640;2023-08-07T11:28:33;2.20;;;2.00;;
76119;SDS011;64852;48.092;-1.640;2023-08-07T11:30:59;1.53;;;1.53;;
76119;SDS011;64852;48.092;-1.640;2023-08-07T11:33:25;1.92;;;1.83;;
76119;SDS011;64852;48.092;-1.640;2023-08-07T11:35:52;1.30;;;1.30;;
76119;SDS011;64852;48.092;-1.640;2023-08-07T11:38:38;1.30;;;1.30;;
76119;SDS011;64852;48.092;-1.640;2023-08-07T11:41:11;1.40;;;1.40;;
76119;SDS011;64852;48.092;-1.640;2023-08-07T11:43:38;1.70;;;1.60;;
76119;SDS011;64852;48.092;-1.640;2023-08-07T11:46:07;1.20;;;1.20;;
76119;SDS011;64852;48.092;-1.640;2023-08-07T11:48:34;1.60;;;1.50;;
76119;SDS011;64852;48.092;-1.640;2023-08-07T11:51:01;1.50;;;1.50;;
76119;SDS011;64852;48.092;-1.640;2023-08-07T11:53:28;2.45;;;1.65;;
76119;SDS011;64852;48.092;-1.640;2023-08-07T11:55:56;1.73;;;1.63;;
76119;SDS011;64852;48.092;-1.640;2023-08-07T11:58:39;1.50;;;1.50;;
76119;SDS011;64852;48.092;-1.640;2023-08-07T12:01:12;1.42;;;1.42;;
76119;SDS011;64852;48.092;-1.640;2023-08-07T12:03:41;1.77;;;1.67;;
76119;SDS011;64852;48.092;-1.640;2023-08-07T12:06:08;1.30;;;1.30;;
76119;SDS011;64852;48.092;-1.640;2023-08-07T12:08:35;1.20;;;1.20;;
76119;SDS011;64852;48.092;-1.640;2023-08-07T12:11:02;1.50;;;1.50;;
76119;SDS011;64852;48.092;-1.640;2023-08-07T12:13:29;1.30;;;1.30;;
76119;SDS011;64852;48.092;-1.640;2023-08-07T12:15:57;1.50;;;1.40;;
76119;SDS011;64852;48.092;-1.640;2023-08-07T12:20:51;1.20;;;1.20;;
76119;SDS011;64852;48.092;-1.640;2023-08-07T12:23:17;1.50;;;1.40;;
76119;SDS011;64852;48.092;-1.640;2023-08-07T12:25:46;1.60;;;1.50;;
76119;SDS011;64852;48.092;-1.640;2023-08-07T12:28:12;1.10;;;1.10;;
76119;SDS011;64852;48.092;-1.640;2023-08-07T12:30:38;1.20;;;1.20;;
76119;SDS011;64852;48.092;-1.640;2023-08-07T12:33:04;1.30;;;1.30;;
76119;SDS011;64852;48.092;-1.640;2023-08-07T12:35:30;1.60;;;1.50;;
76119;SDS011;64852;48.092;-1.640;2023-08-07T12:37:56;1.20;;;1.10;;
76119;SDS011;64852;48.092;-1.640;2023-08-07T12:40:22;1.17;;;1.17;;
76119;SDS011;64852;48.092;-1.640;2023-08-07T12:42:48;1.20;;;1.20;;
76119;SDS011;64852;48.092;-1.640;2023-08-07T12:45:15;1.00;;;1.00;;
76119;SDS011;64852;48.092;-1.640;2023-08-07T12:50:07;4.72;;;1.60;;
76119;SDS011;64852;48.092;-1.640;2023-08-07T12:52:33;1.10;;;1.10;;
76119;SDS011;64852;48.092;-1.640;2023-08-07T12:55:00;1.00;;;1.00;;
76119;SDS011;64852;48.092;-1.640;2023-08-07T12:57:25;1.00;;;1.00;;
76119;SDS011;64852;48.092;-1.640;2023-08-07T12:59:51;0.90;;;0.90;;
76119;SDS011;64852;48.092;-1.640;2023-08-07T13:02:17;1.70;;;1.60;;
76119;SDS011;64852;48.092;-1.640;2023-08-07T13:04:43;1.08;;;1.08;;
76119;SDS011;64852;48.092;-1.640;2023-08-07T13:07:08;1.47;;;1.37;;
76119;SDS011;64852;48.092;-1.640;2023-08-07T13:09:34;6.40;;;3.13;;
76119;SDS011;64852;48.092;-1.640;2023-08-07T13:12:00;1.20;;;1.20;;
76119;SDS011;64852;48.092;-1.640;2023-08-07T13:14:25;1.20;;;1.20;;
76119;SDS011;64852;48.092;-1.640;2023-08-07T13:16:51;2.17;;;1.80;;
76119;SDS011;64852;48.092;-1.640;2023-08-07T13:19:16;0.90;;;0.90;;
76119;SDS011;64852;48.092;-1.640;2023-08-07T13:21:42;1.00;;;1.00;;
76119;SDS011;64852;48.092;-1.640;2023-08-07T13:24:08;1.13;;;1.13;;
76119;SDS011;64852;48.092;-1.640;2023-08-07T13:26:34;1.15;;;1.15;;
76119;SDS011;64852;48.092;-1.640;2023-08-07T13:28:59;1.10;;;1.10;;
76119;SDS011;64852;48.092;-1.640;2023-08-07T13:31:25;1.38;;;1.27;;
76119;SDS011;64852;48.092;-1.640;2023-08-07T13:33:51;0.93;;;0.93;;
76119;SDS011;64852;48.092;-1.640;2023-08-07T13:36:17;1.00;;;1.00;;
76119;SDS011;64852;48.092;-1.640;2023-08-07T13:38:42;1.20;;;1.20;;
76119;SDS011;64852;48.092;-1.640;2023-08-07T13:41:08;1.20;;;1.20;;
76119;SDS011;64852;48.092;-1.640;2023-08-07T13:43:34;1.00;;;1.00;;
76119;SDS011;64852;48.092;-1.640;2023-08-07T13:45:59;1.63;;;1.52;;
76119;SDS011;64852;48.092;-1.640;2023-08-07T13:48:25;1.00;;;1.00;;
76119;SDS011;64852;48.092;-1.640;2023-08-07T13:50:52;0.73;;;0.73;;
76119;SDS011;64852;48.092;-1.640;2023-08-07T13:53:18;0.88;;;0.88;;
76119;SDS011;64852;48.092;-1.640;2023-08-07T13:55:45;0.70;;;0.70;;
76119;SDS011;64852;48.092;-1.640;2023-08-07T13:58:11;1.67;;;0.60;;
76119;SDS011;64852;48.092;-1.640;2023-08-07T14:00:40;1.00;;;0.75;;
76119;SDS011;64852;48.092;-1.640;2023-08-07T14:03:06;0.60;;;0.60;;
76119;SDS011;64852;48.092;-1.640;2023-08-07T14:05:31;0.70;;;0.70;;
76119;SDS011;64852;48.092;-1.640;2023-08-07T14:07:57;1.00;;;1.00;;
76119;SDS011;64852;48.092;-1.640;2023-08-07T14:10:23;0.93;;;0.93;;
76119;SDS011;64852;48.092;-1.640;2023-08-07T14:12:48;0.93;;;0.93;;
76119;SDS011;64852;48.092;-1.640;2023-08-07T14:15:14;2.90;;;0.85;;
76119;SDS011;64852;48.092;-1.640;2023-08-07T14:17:39;1.17;;;0.80;;
76119;SDS011;64852;48.092;-1.640;2023-08-07T14:20:05;0.60;;;0.60;;
76119;SDS011;64852;48.092;-1.640;2023-08-07T14:22:31;0.60;;;0.60;;
76119;SDS011;64852;48.092;-1.640;2023-08-07T14:24:58;0.60;;;0.60;;
76119;SDS011;64852;48.092;-1.640;2023-08-07T14:34:40;0.60;;;0.60;;
76119;SDS011;64852;48.092;-1.640;2023-08-07T14:51:39;0.70;;;0.70;;
76119;SDS011;64852;48.092;-1.640;2023-08-07T14:54:04;0.63;;;0.63;;
76119;SDS011;64852;48.092;-1.640;2023-08-07T14:56:30;1.10;;;1.10;;
76119;SDS011;64852;48.092;-1.640;2023-08-07T14:58:55;1.10;;;1.00;;
76119;SDS011;64852;48.092;-1.640;2023-08-07T15:01:21;0.50;;;0.50;;
76119;SDS011;64852;48.092;-1.640;2023-08-07T15:03:47;0.60;;;0.60;;
76119;SDS011;64852;48.092;-1.640;2023-08-07T15:06:12;0.60;;;0.60;;
76119;SDS011;64852;48.092;-1.640;2023-08-07T15:08:38;0.57;;;0.57;;
76119;SDS011;64852;48.092;-1.640;2023-08-07T15:11:03;0.60;;;0.60;;
76119;SDS011;64852;48.092;-1.640;2023-08-07T15:13:29;1.73;;;0.88;;
76119;SDS011;64852;48.092;-1.640;2023-08-07T15:15:55;1.10;;;1.07;;
76119;SDS011;64852;48.092;-1.640;2023-08-07T15:23:14;0.60;;;0.60;;
76119;SDS011;64852;48.092;-1.640;2023-08-07T15:25:40;0.50;;;0.50;;
76119;SDS011;64852;48.092;-1.640;2023-08-07T15:28:07;0.60;;;0.60;;
76119;SDS011;64852;48.092;-1.640;2023-08-07T15:30:32;0.63;;;0.63;;
76119;SDS011;64852;48.092;-1.640;2023-08-07T15:32:58;0.60;;;0.60;;
76119;SDS011;64852;48.092;-1.640;2023-08-07T15:35:24;0.70;;;0.70;;
76119;SDS011;64852;48.092;-1.640;2023-08-07T15:45:10;0.50;;;0.50;;
76119;SDS011;64852;48.092;-1.640;2023-08-07T15:47:37;0.60;;;0.60;;
76119;SDS011;64852;48.092;-1.640;2023-08-07T15:50:03;1.52;;;0.93;;
76119;SDS011;64852;48.092;-1.640;2023-08-07T15:54:54;0.88;;;0.85;;
76119;SDS011;64852;48.092;-1.640;2023-08-07T15:57:20;0.95;;;0.90;;
76119;SDS011;64852;48.092;-1.640;2023-08-07T15:59:46;0.77;;;0.77;;
76119;SDS011;64852;48.092;-1.640;2023-08-07T16:02:11;0.60;;;0.60;;
76119;SDS011;64852;48.092;-1.640;2023-08-07T16:04:37;0.93;;;0.93;;
76119;SDS011;64852;48.092;-1.640;2023-08-07T16:09:29;2.25;;;1.00;;
76119;SDS011;64852;48.092;-1.640;2023-08-07T16:11:56;0.70;;;0.70;;
76119;SDS011;64852;48.092;-1.640;2023-08-07T16:16:48;1.20;;;1.10;;
76119;SDS011;64852;48.092;-1.640;2023-08-07T16:19:15;0.60;;;0.60;;
76119;SDS011;64852;48.092;-1.640;2023-08-07T16:24:06;0.90;;;0.88;;
76119;SDS011;64852;48.092;-1.640;2023-08-07T16:26:32;2.15;;;1.23;;
76119;SDS011;64852;48.092;-1.640;2023-08-07T16:28:57;0.65;;;0.65;;
76119;SDS011;64852;48.092;-1.640;2023-08-07T16:31:23;0.80;;;0.80;;
76119;SDS011;64852;48.092;-1.640;2023-08-07T16:33:48;1.35;;;0.75;;
76119;SDS011;64852;48.092;-1.640;2023-08-07T16:36:15;0.70;;;0.70;;
76119;SDS011;64852;48.092;-1.640;2023-08-07T16:38:41;0.70;;;0.70;;
76119;SDS011;64852;48.092;-1.640;2023-08-07T16:41:06;0.50;;;0.50;;
76119;SDS011;64852;48.092;-1.640;2023-08-07T16:45:57;0.63;;;0.60;;
76119;SDS011;64852;48.092;-1.640;2023-08-07T16:48:23;0.60;;;0.60;;
76119;SDS011;64852;48.092;-1.640;2023-08-07T16:50:49;0.90;;;0.90;;
76119;SDS011;64852;48.092;-1.640;2023-08-07T16:53:16;0.80;;;0.80;;
76119;SDS011;64852;48.092;-1.640;2023-08-07T17:00:34;0.85;;;0.85;;
76119;SDS011;64852;48.092;-1.640;2023-08-07T17:07:51;0.70;;;0.70;;
76119;SDS011;64852;48.092;-1.640;2023-08-07T17:17:33;0.60;;;0.60;;
76119;SDS011;64852;48.092;-1.640;2023-08-07T17:22:25;0.98;;;0.90;;
76119;SDS011;64852;48.092;-1.640;2023-08-07T17:24:50;0.73;;;0.63;;
76119;SDS011;64852;48.092;-1.640;2023-08-07T17:27:16;0.50;;;0.50;;
76119;SDS011;64852;48.092;-1.640;2023-08-07T17:29:41;6.90;;;1.00;;
76119;SDS011;64852;48.092;-1.640;2023-08-07T17:32:07;0.77;;;0.77;;
76119;SDS011;64852;48.092;-1.640;2023-08-07T17:34:33;0.90;;;0.90;;
76119;SDS011;64852;48.092;-1.640;2023-08-07T17:36:58;1.55;;;0.70;;
76119;SDS011;64852;48.092;-1.640;2023-08-07T17:39:24;0.65;;;0.65;;
76119;SDS011;64852;48.092;-1.640;2023-08-07T17:41:49;0.70;;;0.70;;
76119;SDS011;64852;48.092;-1.640;2023-08-07T17:44:15;0.70;;;0.70;;
76119;SDS011;64852;48.092;-1.640;2023-08-07T17:46:42;0.70;;;0.70;;
76119;SDS011;64852;48.092;-1.640;2023-08-07T17:51:33;0.80;;;0.80;;
76119;SDS011;64852;48.092;-1.640;2023-08-07T17:53:59;0.60;;;0.60;;
76119;SDS011;64852;48.092;-1.640;2023-08-07T17:56:25;0.75;;;0.75;;
76119;SDS011;64852;48.092;-1.640;2023-08-07T17:58:50;0.60;;;0.60;;
76119;SDS011;64852;48.092;-1.640;2023-08-07T18:01:19;0.60;;;0.60;;
76119;SDS011;64852;48.092;-1.640;2023-08-07T18:03:45;0.80;;;0.80;;
76119;SDS011;64852;48.092;-1.640;2023-08-07T18:06:12;0.85;;;0.85;;
76119;SDS011;64852;48.092;-1.640;2023-08-07T18:08:38;0.77;;;0.77;;
76119;SDS011;64852;48.092;-1.640;2023-08-07T18:11:04;0.80;;;0.80;;
76119;SDS011;64852;48.092;-1.640;2023-08-07T18:13:30;0.80;;;0.80;;
76119;SDS011;64852;48.092;-1.640;2023-08-07T18:15:55;1.23;;;1.05;;
76119;SDS011;64852;48.092;-1.640;2023-08-07T18:18:22;0.90;;;0.90;;
76119;SDS011;64852;48.092;-1.640;2023-08-07T18:20:48;0.80;;;0.80;;
76119;SDS011;64852;48.092;-1.640;2023-08-07T18:23:14;0.70;;;0.70;;
76119;SDS011;64852;48.092;-1.640;2023-08-07T18:25:40;0.70;;;0.70;;
76119;SDS011;64852;48.092;-1.640;2023-08-07T18:28:05;2.15;;;1.65;;
76119;SDS011;64852;48.092;-1.640;2023-08-07T18:30:31;0.90;;;0.90;;
76119;SDS011;64852;48.092;-1.640;2023-08-07T18:32:57;0.80;;;0.80;;
76119;SDS011;64852;48.092;-1.640;2023-08-07T18:35:23;1.10;;;1.10;;
76119;SDS011;64852;48.092;-1.640;2023-08-07T18:59:39;1.38;;;0.70;;
76119;SDS011;64852;48.092;-1.640;2023-08-07T19:28:52;0.98;;;0.98;;
76119;SDS011;64852;48.092;-1.640;2023-08-07T19:31:17;0.70;;;0.70;;
76119;SDS011;64852;48.092;-1.640;2023-08-07T19:33:43;0.68;;;0.68;;
76119;SDS011;64852;48.092;-1.640;2023-08-07T19:36:09;0.70;;;0.70;;
76119;SDS011;64852;48.092;-1.640;2023-08-07T19:38:34;0.67;;;0.67;;
76119;SDS011;64852;48.092;-1.640;2023-08-07T19:41:00;0.70;;;0.70;;
76119;SDS011;64852;48.092;-1.640;2023-08-07T19:43:26;0.70;;;0.70;;
76119;SDS011;64852;48.092;-1.640;2023-08-07T19:45:51;0.70;;;0.70;;
76119;SDS011;64852;48.092;-1.640;2023-08-07T19:48:18;0.80;;;0.70;;
76119;SDS011;64852;48.092;-1.640;2023-08-07T19:50:43;1.10;;;1.10;;
76119;SDS011;64852;48.092;-1.640;2023-08-07T19:53:09;1.00;;;1.00;;
76119;SDS011;64852;48.092;-1.640;2023-08-07T19:55:35;0.80;;;0.80;;
76119;SDS011;64852;48.092;-1.640;2023-08-07T19:58:00;1.87;;;1.70;;
76119;SDS011;64852;48.092;-1.640;2023-08-07T20:00:28;0.60;;;0.60;;
76119;SDS011;64852;48.092;-1.640;2023-08-07T20:02:54;0.77;;;0.77;;
76119;SDS011;64852;48.092;-1.640;2023-08-07T20:05:20;1.60;;;1.50;;
76119;SDS011;64852;48.092;-1.640;2023-08-07T20:07:45;0.70;;;0.70;;
76119;SDS011;64852;48.092;-1.640;2023-08-07T20:10:11;0.82;;;0.82;;
76119;SDS011;64852;48.092;-1.640;2023-08-07T20:12:37;1.05;;;1.00;;
76119;SDS011;64852;48.092;-1.640;2023-08-07T20:15:03;0.80;;;0.80;;
76119;SDS011;64852;48.092;-1.640;2023-08-07T20:17:29;1.42;;;1.38;;
76119;SDS011;64852;48.092;-1.640;2023-08-07T20:19:55;0.80;;;0.80;;
76119;SDS011;64852;48.092;-1.640;2023-08-07T20:22:20;0.80;;;0.80;;
76119;SDS011;64852;48.092;-1.640;2023-08-07T20:24:46;0.90;;;0.90;;
76119;SDS011;64852;48.092;-1.640;2023-08-07T20:27:12;0.80;;;0.80;;
76119;SDS011;64852;48.092;-1.640;2023-08-07T20:29:37;1.00;;;1.00;;
76119;SDS011;64852;48.092;-1.640;2023-08-07T20:32:03;0.70;;;0.70;;
76119;SDS011;64852;48.092;-1.640;2023-08-07T20:34:29;0.98;;;0.98;;
76119;SDS011;64852;48.092;-1.640;2023-08-07T20:36:55;0.90;;;0.90;;
76119;SDS011;64852;48.092;-1.640;2023-08-07T20:39:20;0.90;;;0.90;;
76119;SDS011;64852;48.092;-1.640;2023-08-07T20:41:46;0.83;;;0.83;;